Bridgeport Valley, California Weather observations

Data are for 10 minute period ending at time listed.
 Day   Time   Solar   Ave.   Ave.  Ave.  Vector  Max.   Baro.   Total    
  of    of     Rad.   Air    Rel.  Wind   Wind   Wind  Press.  Precip.   
Year   Day            Temp.  Hum.  Speed  Dir.   Gust                    
2015   (PST)  Kw/m2    F      %     mph   deg.    mph    mb.     in.     
-------------------------------------------------------------------------
  24    1:30   0.00   13.7    75    2.9   227     3.7   813.1    0.00 
  24    1:40   0.00   12.2    80    3.3   189     4.2   813.0    0.00 
  24    1:50   0.00   10.0    80    2.6   100     3.3   813.0    0.00 
  24    2:00   0.00    7.2    86    0.8   169     2.6   813.0    0.00 
  24    2:10   0.00    7.4    87    0.4   272     1.9   813.0    0.00 
  24    2:20   0.00    7.9    87    2.1   245     4.7   812.9    0.00 
  24    2:30   0.00    6.3    86    4.4   244     5.5   813.0    0.00 
  24    2:40   0.00    5.6    87    4.1   256     4.6   813.1    0.00 
  24    2:50   0.00    6.0    86    3.4   282     4.1   813.2    0.00 
  24    3:00   0.00    5.3    86    3.8   192     5.4   813.3    0.00 
  24    3:10   0.00    6.5    88    3.6   183     4.9   813.3    0.00 
  24    3:20   0.00    6.6    88    1.4   262     3.2   813.2    0.00 
  24    3:30   0.00    7.4    87    3.2   267     4.2   813.2    0.00 
  24    3:40   0.00    6.8    87    2.7   276     4.1   813.2    0.00 
  24    3:50   0.00    7.4    87    1.8   271     2.9   813.3    0.00 
  24    4:00   0.00    6.5    83    0.6   358     1.5   813.4    0.00 
  24    4:10   0.00    4.2    85    1.2   341     2.0   813.4    0.00 
  24    4:20   0.00    3.9    85    1.8   313     4.3   813.4    0.00 
  24    4:30   0.00    4.3    88    1.5   170     4.3   813.3    0.00 
  24    4:40   0.00    5.0    88    1.0    66     4.2   813.3    0.00 
  24    4:50   0.00    5.1    88    2.1   271     3.8   813.3    0.00 
  24    5:00   0.00    3.3    85    2.7   262     3.9   813.2    0.00 
  24    5:10   0.00    2.0    87    3.7   242     4.2   813.1    0.00 
  24    5:20   0.00    1.7    88    3.6   217     4.5   813.0    0.00 
  24    5:30   0.00    2.7    89    3.5   238     4.3   813.0    0.00 
  24    5:40   0.00    3.4    89    2.8   223     4.2   813.0    0.00 
  24    5:50   0.00    3.8    89    2.8   238     3.2   813.1    0.00 
  24    6:00   0.00    4.5    89    2.5   248     3.3   813.2    0.00 
  24    6:10   0.00    5.8    88    1.1   263     3.4   813.3    0.00 
  24    6:20   0.00    4.9    84    1.7   171     3.3   813.4    0.00 
  24    6:30   0.00    4.0    89    1.1   181     2.2   813.5    0.00 
  24    6:40   0.00    3.8    89    2.0   264     2.7   813.6    0.00 
  24    6:50   0.00    5.3    89    0.6   263     1.6   813.6    0.00 
  24    7:00   0.00    3.2    85    1.4   163     2.3   813.7    0.00 
  24    7:10   0.01    1.1    86    2.8   260     3.4   813.5    0.00 
  24    7:20   0.01    4.4    90    3.7   291     5.3   813.4    0.00 
  24    7:30   0.02    5.1    86    2.3   325     3.4   813.4    0.00 
  24    7:40   0.08    5.0    84    2.8    34     3.9   813.4    0.00 
  24    7:50   0.10    5.3    84    2.3   160     3.4   813.4    0.00 
  24    8:00   0.12    9.7    84    0.8   163     2.1   813.4    0.00 
  24    8:10   0.15   12.0    81    1.8   197     3.9   813.4    0.00 
  24    8:20   0.17   14.0    79    3.2   148     4.5   813.4    0.00 
  24    8:30   0.19   16.8    75    2.1   166     3.2   813.3    0.00 
  24    8:40   0.22   20.4    70    1.3   190     2.4   813.4    0.00 
  24    8:50   0.26   22.8    65    2.3   182     3.8   813.3    0.00 
  24    9:00   0.28   23.3    65    2.3   210     3.9   813.3    0.00 
  24    9:10   0.31   23.6    68    3.4   201     5.3   813.1    0.00 
  24    9:20   0.34   25.4    65    2.4   207     4.5   812.9    0.00 
  24    9:30   0.36   28.1    57    1.0   190     2.9   812.8    0.00 
  24    9:40   0.39   28.8    54    1.8   308     4.0   812.6    0.00 
  24    9:50   0.41   29.2    52    2.1   348     4.1   812.5    0.00 
  24   10:00   0.44   30.3    52    2.7    23     5.4   812.4    0.00 
  24   10:10   0.46   31.2    49    2.7     8     4.9   812.4    0.00 
  24   10:20   0.48   32.9    44    1.8   335     4.4   812.3    0.00 
  24   10:30   0.50   34.3    42    3.7   353     7.2   812.3    0.00 
  24   10:40   0.52   35.7    40    2.7   349     5.8   812.2    0.00 
  24   10:50   0.53   36.6    39    3.5    14     6.9   812.2    0.00 
  24   11:00   0.55   37.2    36    3.0    33     6.4   812.2    0.00 
  24   11:10   0.56   39.5    30    0.8    39     3.6   812.1    0.00 
  24   11:20   0.57   41.3    28    2.2   219     5.2   812.1    0.00 
  24   11:30   0.58   41.8    28    3.3   248     6.7   812.0    0.00 
  24   11:40   0.58   42.7    28    3.9   241     7.5   811.9    0.00 
  24   11:50   0.59   43.9    28    3.4   208     6.7   811.8    0.00 
  24   12:00   0.59   45.4    27    4.3   211     7.4   811.7    0.00 
  24   12:10   0.60   45.3    26    3.3   212     6.6   811.5    0.00 
  24   12:20   0.60   46.5    25    2.9   221     6.2   811.3    0.00 
  24   12:30   0.59   47.7    23    2.8   207     7.6   811.0    0.00 
  24   12:40   0.59   49.0    21    2.2   200     5.3   811.0    0.00 
  24   12:50   0.58   49.6    20    2.2   164     5.0   810.8    0.00 
  24   13:00   0.58   50.6    18    1.2    35     3.6   810.6    0.00 
  24   13:10   0.57   50.8    18    1.5    32     4.6   810.4    0.00 
  24   13:20   0.56   51.7    16    3.3   340     6.6   810.3    0.00 
  24   13:30   0.54   51.9    15    3.0    10     6.2   810.2    0.00 
  24   13:40   0.53   52.8    14    3.9    21     6.8   810.1    0.00 
  24   13:50   0.51   53.5    13    3.3     4     7.4   810.0    0.00 
  24   14:00   0.50   54.0    12    3.4     8     6.4   809.9    0.00 
  24   14:10   0.48   55.0    12    4.7   354     7.8   809.9    0.00 
  24   14:20   0.46   55.7    11    5.6    12     9.6   809.8    0.00 
  24   14:30   0.44   56.2    11    6.3   353     9.1   809.8    0.00 
  24   14:40   0.41   56.6    11    8.1    15    13.7   809.8    0.00 
  24   14:50   0.39   56.5    11    9.4    12    13.3   809.8    0.00 
  24   15:00   0.36   56.1    12   10.8    10    15.8   809.7    0.00 
  24   15:10   0.34   55.8    12   11.0     3    18.2   809.7    0.00 
  24   15:20   0.31   54.0    15   15.0    17    24.0   809.7    0.00 
  24   15:30   0.28   52.7    18   15.4     9    21.0   809.8    0.00 
  24   15:40   0.26   51.5    20   17.0    13    24.0   809.8    0.00 
  24   15:50   0.23   50.7    22   15.2    11    22.1   809.8    0.00 
  24   16:00   0.20   50.1    23   13.7    14    18.3   809.8    0.00 
  24   16:10   0.17   49.5    23   14.8    20    18.8   809.7    0.00 
  24   16:20   0.14   48.9    23   15.2    18    19.8   809.8    0.00 
  24   16:30   0.12   48.4    23   14.3    17    20.0   809.8    0.00 
  24   16:40   0.04   46.9    24   12.9    18    19.0   810.0    0.00 
  24   16:50   0.01   45.4    26   10.1    16    14.2   810.0    0.00 
  24   17:00   0.01   44.4    26    9.8    16    15.1   809.9    0.00 
  24   17:10   0.01   42.9    28    9.7    18    13.0   810.0    0.00 
  24   17:20   0.00   41.4    28    7.6    40    10.8   810.2    0.00 
  24   17:30   0.00   42.5    26    5.6    65     8.7   810.3    0.00 
  24   17:40   0.00   41.1    27    1.5   122     3.6   810.4    0.00 
  24   17:50   0.00   38.9    28    1.2   333     3.3   810.5    0.00 
  24   18:00   0.00   38.6    30    2.6     5     4.3   810.6    0.00 
  24   18:10   0.00   34.1    35    2.8   139     4.9   810.6    0.00 
  24   18:20   0.00   29.3    46    1.7   127     5.5   810.6    0.00 
  24   18:30   0.00   26.1    52    3.9   187     4.7   810.6    0.00 
  24   18:40   0.00   26.8    53    4.7   191     6.6   810.6    0.00 
  24   18:50   0.00   27.5    52    4.1   180     5.8   810.7    0.00 
  24   19:00   0.00   27.5    50    3.9   182     4.7   810.8    0.00 
  24   19:10   0.00   25.2    55    3.9   198     4.9   810.9    0.00 
  24   19:20   0.00   26.8    50    3.8   213     5.6   810.9    0.00 
  24   19:30   0.00   26.5    51    3.2   201     4.1   810.9    0.00 
  24   19:40   0.00   26.0    51    4.0   185     5.7   811.0    0.00 
  24   19:50   0.00   26.6    50    3.6   188     5.6   811.1    0.00 
  24   20:00   0.00   24.6    56    4.2   201     4.9   811.2    0.00 
  24   20:10   0.00   23.3    57    4.4   203     5.7   811.3    0.00 
  24   20:20   0.00   23.3    57    4.5   215     5.5   811.4    0.00 
  24   20:30   0.00   22.9    58    4.3   207     6.0   811.5    0.00 
  24   20:40   0.00   22.1    61    2.8   194     4.5   811.6    0.00 
  24   20:50   0.00   23.2    58    4.3   183     6.6   811.5    0.00 
  24   21:00   0.00   19.7    67    4.2   184     6.6   811.4    0.00 
  24   21:10   0.00   22.8    61    1.8   153     4.2   811.4    0.00 
  24   21:20   0.00   26.4    50    1.3   167     3.1   811.4    0.00 
  24   21:30   0.00   24.9    51    1.6   257     2.9   811.4    0.00 
  24   21:40   0.00   22.5    55    1.5   247     3.2   811.4    0.00 
  24   21:50   0.00   23.4    54    3.2   230     4.7   811.5    0.00 
  24   22:00   0.00   24.0    56    5.0   178     7.7   811.5    0.00 
  24   22:10   0.00   18.7    67    2.6   250     3.8   811.4    0.00 
  24   22:20   0.00   18.3    71    1.4   270     2.9   811.5    0.00 
  24   22:30   0.00   19.5    69    1.7   208     2.7   811.5    0.00 
  24   22:40   0.00   19.4    70    1.7   231     3.4   811.7    0.00 
  24   22:50   0.00   17.6    72    2.4   279     3.5   811.8    0.00 
  24   23:00   0.00   18.1    72    0.6   237     2.0   812.0    0.00 
  24   23:10   0.00   17.9    69    1.9   291     3.9   812.1    0.00 
  24   23:20   0.00   15.0    72    1.7   230     2.9   812.2    0.00 
  24   23:30   0.00   13.8    76    2.4   219     3.4   812.3    0.00 
  24   23:40   0.00   14.5    79    1.7   210     2.9   812.3    0.00 
  24   23:50   0.00   15.7    78    1.3   206     2.5   812.2    0.00 
  25    0:00   0.00   15.1    75    3.8   237     4.9   812.2    0.00 
  25    0:10   0.00   16.8    75    3.5   248     4.5   812.1    0.00 
  25    0:20   0.00   18.1    70    2.9   336     4.9   812.1    0.00 
  25    0:30   0.00   17.3    71    3.6   360     5.8   812.1    0.00 
  25    0:40   0.00   13.4    76    3.0   114     3.6   812.0    0.00 
  25    0:50   0.00   11.2    84    4.0   222     5.3   812.0    0.00 
  25    1:00   0.00   13.4    84    4.0   226     5.4   812.0    0.00 
  25    1:10   0.00   13.9    80    1.8   252     3.0   812.0    0.00 
  25    1:20   0.00   13.0    79    1.1   281     2.0   812.0    0.00 

Return to Bridgeport Valley graphs page.


Western Regional Climate Center,wrcc@dri.edu